Time;durP1;ratioP1;P1;durP2;ratioP2;P2;SDS_P1;SDS_P2;PMS_P1;PMS_P2;Temp;Humidity;BMP_temperature;BMP_pressure;BME280_temperature;BME280_humidity;BME280_pressure;Samples;Min_cycle;Max_cycle;Signal;HPM_P1;HPM_P2
2022/09/27 00:01:00;;;;;;;14.45;13.65;;;;;;;;;;4978129;28;20600;-63
2022/09/27 00:03:26;;;;;;;15.43;14.50;;;;;;;;;;4981808;28;20137;-62
2022/09/27 00:06:07;;;;;;;16.40;15.50;;;;;;;;;;4994246;28;20557;-62
2022/09/27 00:08:34;;;;;;;14.95;14.13;;;;;;;;;;4977240;28;20121;-62
2022/09/27 00:11:26;;;;;;;16.27;15.38;;;;;;;;;;4978175;28;20039;-62
2022/09/27 00:13:54;;;;;;;14.77;13.98;;;;;;;;;;4974439;28;20461;-62
2022/09/27 00:16:21;;;;;;;14.00;13.20;;;;;;;;;;4973742;28;20448;-62
2022/09/27 00:18:46;;;;;;;13.38;12.57;;;;;;;;;;4975189;28;20030;-62
2022/09/27 00:21:12;;;;;;;13.13;12.38;;;;;;;;;;4976861;28;20027;-65
2022/09/27 00:23:38;;;;;;;14.65;13.85;;;;;;;;;;4979458;28;20094;-64
2022/09/27 00:26:05;;;;;;;13.43;12.63;;;;;;;;;;4980542;28;20076;-65
2022/09/27 00:28:32;;;;;;;13.20;12.40;;;;;;;;;;4977966;28;20054;-66
2022/09/27 00:30:58;;;;;;;15.05;14.23;;;;;;;;;;4995315;28;20088;-65
2022/09/27 00:33:24;;;;;;;13.38;12.57;;;;;;;;;;4978879;28;20030;-65
2022/09/27 00:35:49;;;;;;;13.35;12.55;;;;;;;;;;4978016;28;20129;-65
2022/09/27 00:38:15;;;;;;;12.38;11.68;;;;;;;;;;4976625;28;20399;-65
2022/09/27 00:40:41;;;;;;;12.57;11.88;;;;;;;;;;4978561;28;20073;-64
2022/09/27 00:43:22;;;;;;;12.77;12.00;;;;;;;;;;4978149;28;20035;-63
2022/09/27 00:46:01;;;;;;;13.18;12.38;;;;;;;;;;4975093;28;20118;-64
2022/09/27 00:48:29;;;;;;;12.55;11.85;;;;;;;;;;4974611;28;20027;-64
2022/09/27 00:51:00;;;;;;;12.00;11.30;;;;;;;;;;4977325;28;20054;-64
2022/09/27 00:53:31;;;;;;;13.80;13.00;;;;;;;;;;4978538;28;20487;-66
2022/09/27 00:56:02;;;;;;;13.15;12.35;;;;;;;;;;4977368;28;20417;-65
2022/09/27 00:58:36;;;;;;;12.05;11.35;;;;;;;;;;4981336;28;20329;-66
2022/09/27 01:01:05;;;;;;;12.20;11.50;;;;;;;;;;4977293;28;20491;-66
2022/09/27 01:03:46;;;;;;;12.45;11.73;;;;;;;;;;4976831;28;20151;-66
2022/09/27 01:06:13;;;;;;;12.30;11.57;;;;;;;;;;4979821;28;20046;-65
2022/09/27 01:08:38;;;;;;;11.35;10.65;;;;;;;;;;4977444;28;20360;-65
2022/09/27 01:11:12;;;;;;;12.85;12.05;;;;;;;;;;4973609;28;20030;-66
2022/09/27 01:14:04;;;;;;;11.23;10.52;;;;;;;;;;4979403;28;20281;-66
2022/09/27 01:16:37;;;;;;;11.30;10.60;;;;;;;;;;4973432;28;20528;-65
2022/09/27 01:19:18;;;;;;;10.07;9.48;;;;;;;;;;4974568;28;20101;-64
2022/09/27 01:21:59;;;;;;;10.10;9.50;;;;;;;;;;4974419;28;20030;-64
2022/09/27 01:24:47;;;;;;;;;;;;;;;;;;4976111;28;20503;-64
2022/09/27 01:27:27;;;;;;;9.45;8.85;;;;;;;;;;4975073;28;19920;-65
2022/09/27 01:30:14;;;;;;;9.45;8.85;;;;;;;;;;4974137;28;20035;-65
2022/09/27 01:33:10;;;;;;;10.15;9.55;;;;;;;;;;4978576;28;20071;-66
2022/09/27 01:35:35;;;;;;;9.05;8.45;;;;;;;;;;4976276;28;20440;-66
2022/09/27 01:38:32;;;;;;;8.98;8.38;;;;;;;;;;4977287;28;20037;-66
2022/09/27 01:41:20;;;;;;;9.50;8.90;;;;;;;;;;4975389;28;20481;-65
2022/09/27 01:43:53;;;;;;;9.00;8.40;;;;;;;;;;4977059;28;20440;-65
2022/09/27 01:46:32;;;;;;;10.30;9.68;;;;;;;;;;4975964;28;20093;-66
2022/09/27 01:49:01;;;;;;;9.73;9.13;;;;;;;;;;4975717;28;20034;-66
2022/09/27 01:51:43;;;;;;;9.57;8.98;;;;;;;;;;4976494;28;20034;-66
2022/09/27 01:54:16;;;;;;;9.90;9.30;;;;;;;;;;4982820;28;20034;-66
2022/09/27 01:56:47;;;;;;;9.90;9.30;;;;;;;;;;4990562;28;20059;-66
2022/09/27 01:59:18;;;;;;;9.73;9.13;;;;;;;;;;4982879;28;20046;-66
2022/09/27 02:01:47;;;;;;;10.77;10.05;;;;;;;;;;4975120;28;20058;-66
2022/09/27 02:04:16;;;;;;;10.40;9.70;;;;;;;;;;4973659;28;20110;-65
2022/09/27 02:06:48;;;;;;;10.32;9.73;;;;;;;;;;4977168;28;20440;-65
2022/09/27 02:09:17;;;;;;;9.65;9.05;;;;;;;;;;4974024;28;20043;-65
2022/09/27 02:11:48;;;;;;;8.60;8.10;;;;;;;;;;4990284;28;20038;-67
2022/09/27 02:14:31;;;;;;;9.13;8.52;;;;;;;;;;4977886;28;20030;-66
2022/09/27 02:17:36;;;;;;;9.45;8.85;;;;;;;;;;4974743;28;20043;-65
2022/09/27 02:20:16;;;;;;;10.07;9.27;;;;;;;;;;4973914;28;20481;-66
2022/09/27 02:22:47;;;;;;;8.98;8.38;;;;;;;;;;4974014;28;20034;-65
2022/09/27 02:25:24;;;;;;;9.65;9.05;;;;;;;;;;4977402;28;20042;-64
2022/09/27 02:28:09;;;;;;;10.20;9.50;;;;;;;;;;4975300;28;20088;-64
2022/09/27 02:30:34;;;;;;;8.98;8.38;;;;;;;;;;4971344;28;20360;-65
2022/09/27 02:33:00;;;;;;;8.40;7.90;;;;;;;;;;4975719;28;20030;-65
2022/09/27 02:35:30;;;;;;;8.40;7.90;;;;;;;;;;4970133;28;20039;-65
2022/09/27 02:37:56;;;;;;;7.88;7.38;;;;;;;;;;4973977;28;20094;-64
2022/09/27 02:40:22;;;;;;;7.97;7.43;;;;;;;;;;4977503;28;20041;-64
2022/09/27 02:42:48;;;;;;;8.00;7.50;;;;;;;;;;4976728;28;20417;-65
2022/09/27 02:45:16;;;;;;;9.60;9.00;;;;;;;;;;4979895;28;20184;-65
2022/09/27 02:47:56;;;;;;;9.45;8.85;;;;;;;;;;4978172;28;20389;-66
2022/09/27 02:50:40;;;;;;;8.65;8.05;;;;;;;;;;4976605;28;20467;-66
2022/09/27 02:53:14;;;;;;;9.95;9.35;;;;;;;;;;4977436;28;20652;-66
2022/09/27 02:55:58;;;;;;;9.88;9.27;;;;;;;;;;4978291;28;20117;-66
2022/09/27 02:58:33;;;;;;;9.45;8.85;;;;;;;;;;4976997;28;20060;-66
2022/09/27 03:01:16;;;;;;;9.38;8.77;;;;;;;;;;4979760;28;20472;-66
2022/09/27 03:03:54;;;;;;;10.63;9.93;;;;;;;;;;4974971;28;20338;-67
2022/09/27 03:06:22;;;;;;;9.95;9.30;;;;;;;;;;4976802;28;20038;-66
2022/09/27 03:08:48;;;;;;;9.70;8.65;;;;;;;;;;4978144;28;20035;-66
2022/09/27 03:11:13;;;;;;;8.48;7.97;;;;;;;;;;4978635;28;20049;-66
2022/09/27 03:13:39;;;;;;;8.25;7.75;;;;;;;;;;4975985;28;20026;-65
2022/09/27 03:16:05;;;;;;;8.27;7.78;;;;;;;;;;4977893;28;20027;-65
2022/09/27 03:18:31;;;;;;;7.85;7.35;;;;;;;;;;4977990;28;20472;-65
2022/09/27 03:20:57;;;;;;;7.50;7.00;;;;;;;;;;4978896;28;20038;-65
2022/09/27 03:23:22;;;;;;;7.55;7.05;;;;;;;;;;4977282;28;20100;-64
2022/09/27 03:25:48;;;;;;;7.38;6.88;;;;;;;;;;4977573;28;20097;-64
2022/09/27 03:28:13;;;;;;;7.90;7.40;;;;;;;;;;4978115;28;20418;-64
2022/09/27 03:30:40;;;;;;;7.82;7.32;;;;;;;;;;4975939;28;20415;-64
2022/09/27 03:33:08;;;;;;;7.60;7.10;;;;;;;;;;4976875;28;20330;-64
2022/09/27 03:35:33;;;;;;;7.80;7.30;;;;;;;;;;4978393;28;20038;-64
2022/09/27 03:37:58;;;;;;;7.72;7.22;;;;;;;;;;4977848;28;20535;-64
2022/09/27 03:40:24;;;;;;;7.55;7.05;;;;;;;;;;4975022;28;20031;-64
2022/09/27 03:42:49;;;;;;;21.15;7.10;;;;;;;;;;4976003;28;20177;-64
2022/09/27 03:45:15;;;;;;;7.65;7.15;;;;;;;;;;4978545;28;20198;-64
2022/09/27 03:47:41;;;;;;;7.15;6.65;;;;;;;;;;4975808;28;20034;-64
2022/09/27 03:50:08;;;;;;;7.18;6.68;;;;;;;;;;4978477;28;20054;-64
2022/09/27 03:52:33;;;;;;;7.18;6.68;;;;;;;;;;4977638;28;20178;-64
2022/09/27 03:54:59;;;;;;;7.65;7.15;;;;;;;;;;4980785;28;20137;-65
2022/09/27 03:57:24;;;;;;;8.43;7.93;;;;;;;;;;4976088;28;20500;-64
2022/09/27 03:59:50;;;;;;;8.20;7.70;;;;;;;;;;4977711;28;20027;-64
2022/09/27 04:02:15;;;;;;;8.05;7.55;;;;;;;;;;4979450;28;20038;-64
2022/09/27 04:04:41;;;;;;;8.07;7.57;;;;;;;;;;4978098;28;20346;-63
2022/09/27 04:07:08;;;;;;;8.15;7.65;;;;;;;;;;4974391;28;20357;-65
2022/09/27 04:09:34;;;;;;;7.57;7.07;;;;;;;;;;4977680;28;20511;-64
2022/09/27 04:12:00;;;;;;;7.63;7.13;;;;;;;;;;4980288;28;20030;-64
2022/09/27 04:14:25;;;;;;;7.88;7.38;;;;;;;;;;4978469;28;20033;-64
2022/09/27 04:16:51;;;;;;;7.85;7.35;;;;;;;;;;4976547;28;20356;-64
2022/09/27 04:19:16;;;;;;;7.63;7.13;;;;;;;;;;4975168;28;20039;-64
2022/09/27 04:21:41;;;;;;;8.25;7.75;;;;;;;;;;4978698;28;20038;-63
2022/09/27 04:24:07;;;;;;;8.02;7.53;;;;;;;;;;4976034;28;20039;-63
2022/09/27 04:26:32;;;;;;;7.88;7.38;;;;;;;;;;4976787;28;20034;-63
2022/09/27 04:28:58;;;;;;;8.35;7.85;;;;;;;;;;4978109;28;20057;-63
2022/09/27 04:31:23;;;;;;;8.15;7.65;;;;;;;;;;4977253;28;20575;-63
2022/09/27 04:33:49;;;;;;;7.60;7.10;;;;;;;;;;4976016;28;20038;-61
2022/09/27 04:36:26;;;;;;;7.75;7.25;;;;;;;;;;4976434;28;20543;-63
2022/09/27 04:38:56;;;;;;;8.02;7.53;;;;;;;;;;4975558;28;20597;-63
2022/09/27 04:41:22;;;;;;;7.63;7.13;;;;;;;;;;4977317;28;20034;-63
2022/09/27 04:43:49;;;;;;;8.55;8.05;;;;;;;;;;4975800;28;20117;-64
2022/09/27 04:46:15;;;;;;;7.53;7.03;;;;;;;;;;4975163;28;20030;-64
2022/09/27 04:48:40;;;;;;;7.57;7.07;;;;;;;;;;4977933;28;20057;-64
2022/09/27 04:51:06;;;;;;;6.97;6.47;;;;;;;;;;4975007;28;20039;-63
2022/09/27 04:53:31;;;;;;;8.43;7.82;;;;;;;;;;4975559;28;20105;-65
2022/09/27 04:55:57;;;;;;;7.75;7.25;;;;;;;;;;4991304;28;20134;-66
2022/09/27 04:58:23;;;;;;;7.15;6.65;;;;;;;;;;4974884;28;20093;-66
2022/09/27 05:00:51;;;;;;;7.68;7.18;;;;;;;;;;4976967;28;20022;-66
2022/09/27 05:03:18;;;;;;;7.88;7.38;;;;;;;;;;4979747;28;20109;-66
2022/09/27 05:05:43;;;;;;;7.80;7.30;;;;;;;;;;4976248;28;20030;-64
2022/09/27 05:08:09;;;;;;;7.70;7.20;;;;;;;;;;4976619;28;20042;-64
2022/09/27 05:10:35;;;;;;;7.53;7.03;;;;;;;;;;4974003;28;20072;-63
2022/09/27 05:13:00;;;;;;;7.70;7.20;;;;;;;;;;4975860;28;20041;-64
2022/09/27 05:15:25;;;;;;;8.20;7.60;;;;;;;;;;4982141;28;20038;-67
2022/09/27 05:17:51;;;;;;;7.50;7.00;;;;;;;;;;4973542;28;20035;-64
2022/09/27 05:20:18;;;;;;;8.05;7.55;;;;;;;;;;4976676;28;20070;-63
2022/09/27 05:22:43;;;;;;;7.80;7.30;;;;;;;;;;4977794;28;20042;-64
2022/09/27 05:25:09;;;;;;;7.70;7.20;;;;;;;;;;4976220;28;20023;-65
2022/09/27 05:27:34;;;;;;;7.60;7.10;;;;;;;;;;4975075;28;20025;-64
2022/09/27 05:30:00;;;;;;;8.20;7.70;;;;;;;;;;4975177;28;20053;-64
2022/09/27 05:32:27;;;;;;;7.72;7.22;;;;;;;;;;4976979;28;20027;-64
2022/09/27 05:34:53;;;;;;;8.23;7.68;;;;;;;;;;4975256;28;20532;-65
2022/09/27 05:37:19;;;;;;;8.32;7.82;;;;;;;;;;4977237;28;20077;-65
2022/09/27 05:39:45;;;;;;;7.80;7.30;;;;;;;;;;4974934;28;20366;-66
2022/09/27 05:42:11;;;;;;;7.15;6.65;;;;;;;;;;4974632;28;20046;-64
2022/09/27 05:44:38;;;;;;;7.35;6.85;;;;;;;;;;4973261;28;20035;-65
2022/09/27 05:47:04;;;;;;;8.63;8.05;;;;;;;;;;4975365;28;20037;-64
2022/09/27 05:49:30;;;;;;;7.70;7.05;;;;;;;;;;4976250;28;20117;-64
2022/09/27 05:51:55;;;;;;;8.10;7.60;;;;;;;;;;4977003;28;20533;-64
2022/09/27 05:54:20;;;;;;;7.57;7.07;;;;;;;;;;4975574;28;20186;-65
2022/09/27 05:56:45;;;;;;;7.43;6.93;;;;;;;;;;4975147;28;20031;-65
2022/09/27 05:59:11;;;;;;;7.70;7.20;;;;;;;;;;4974786;28;20030;-65
2022/09/27 06:01:36;;;;;;;8.35;7.85;;;;;;;;;;4977528;28;20576;-65
2022/09/27 06:04:03;;;;;;;7.95;7.45;;;;;;;;;;4975828;28;20031;-65
2022/09/27 06:06:28;;;;;;;7.45;6.95;;;;;;;;;;4977894;28;20026;-65
2022/09/27 06:08:54;;;;;;;7.47;6.97;;;;;;;;;;4975604;28;20045;-65
2022/09/27 06:11:19;;;;;;;8.48;7.97;;;;;;;;;;4975343;28;20043;-65
2022/09/27 06:13:44;;;;;;;7.68;7.07;;;;;;;;;;4974064;28;20105;-65
2022/09/27 06:16:10;;;;;;;11.98;7.43;;;;;;;;;;4979553;28;20038;-65
2022/09/27 06:18:36;;;;;;;7.88;7.38;;;;;;;;;;4978546;28;20057;-65
2022/09/27 06:21:03;;;;;;;7.38;6.88;;;;;;;;;;4977570;28;20049;-64
2022/09/27 06:23:31;;;;;;;8.70;7.93;;;;;;;;;;4978708;28;20373;-65
2022/09/27 06:26:04;;;;;;;7.78;7.28;;;;;;;;;;4978539;28;20038;-65
2022/09/27 06:28:29;;;;;;;8.07;7.57;;;;;;;;;;4979593;28;20039;-65
2022/09/27 06:30:55;;;;;;;8.32;7.82;;;;;;;;;;4978172;28;20521;-65
2022/09/27 06:33:21;;;;;;;8.90;8.30;;;;;;;;;;4979600;28;20046;-64
2022/09/27 06:35:48;;;;;;;8.77;8.25;;;;;;;;;;4985660;28;20045;-64
2022/09/27 06:38:16;;;;;;;9.02;8.43;;;;;;;;;;4979040;28;20117;-65
2022/09/27 06:40:45;;;;;;;12.10;10.65;;;;;;;;;;4977867;28;20066;-65
2022/09/27 06:43:13;;;;;;;8.82;8.25;;;;;;;;;;4982102;28;20042;-64
2022/09/27 06:45:39;;;;;;;8.95;8.35;;;;;;;;;;4980101;28;20540;-64
2022/09/27 06:48:06;;;;;;;9.70;9.10;;;;;;;;;;4975920;28;20068;-65
2022/09/27 06:50:34;;;;;;;9.48;8.88;;;;;;;;;;4977484;28;20031;-64
2022/09/27 06:53:00;;;;;;;9.00;8.43;;;;;;;;;;4979234;28;20306;-65
2022/09/27 06:55:25;;;;;;;10.50;9.90;;;;;;;;;;4976857;28;20536;-64
2022/09/27 07:00:38;;;;;;;10.10;9.50;;;;;;;;;;4976366;28;20296;-65
2022/09/27 07:03:04;;;;;;;10.48;9.80;;;;;;;;;;4978513;28;20397;-64
2022/09/27 07:05:30;;;;;;;10.45;9.85;;;;;;;;;;4980641;28;20022;-64
2022/09/27 07:07:56;;;;;;;10.48;9.85;;;;;;;;;;4977556;28;20038;-65
2022/09/27 07:10:24;;;;;;;10.55;9.95;;;;;;;;;;4979134;28;20032;-64
2022/09/27 07:12:51;;;;;;;11.60;10.90;;;;;;;;;;4980399;28;20291;-64
2022/09/27 07:15:16;;;;;;;11.52;10.82;;;;;;;;;;4977943;28;20045;-64
2022/09/27 07:17:42;;;;;;;11.35;10.65;;;;;;;;;;4978136;28;20038;-64
2022/09/27 07:20:08;;;;;;;11.90;11.20;;;;;;;;;;4979266;28;20037;-64
2022/09/27 07:22:41;;;;;;;11.18;10.48;;;;;;;;;;4981104;28;20610;-64
2022/09/27 07:25:07;;;;;;;11.43;10.73;;;;;;;;;;4977372;28;20043;-63
2022/09/27 07:27:33;;;;;;;11.65;10.95;;;;;;;;;;4976438;28;20265;-63
2022/09/27 07:29:59;;;;;;;11.30;10.60;;;;;;;;;;4975603;28;20026;-64
2022/09/27 07:32:25;;;;;;;10.35;9.75;;;;;;;;;;4978435;28;20041;-64
2022/09/27 07:34:50;;;;;;;11.52;10.82;;;;;;;;;;4978115;28;20030;-64
2022/09/27 07:37:16;;;;;;;10.77;10.07;;;;;;;;;;4976406;28;20451;-64
2022/09/27 07:39:42;;;;;;;9.98;9.38;;;;;;;;;;4978618;28;20034;-64
2022/09/27 07:42:08;;;;;;;9.75;9.15;;;;;;;;;;4977135;28;20030;-64
2022/09/27 07:44:33;;;;;;;7.22;6.72;;;;;;;;;;4978417;28;20372;-65
2022/09/27 07:46:58;;;;;;;9.18;8.57;;;;;;;;;;4977343;28;20040;-64
2022/09/27 07:49:24;;;;;;;7.80;7.30;;;;;;;;;;4975717;28;20504;-64
2022/09/27 07:51:50;;;;;;;6.80;6.30;;;;;;;;;;4976658;28;20106;-65
2022/09/27 07:54:15;;;;;;;6.53;6.10;;;;;;;;;;4976507;28;20101;-64
2022/09/27 07:56:41;;;;;;;5.88;5.47;;;;;;;;;;4977744;28;20484;-64
2022/09/27 07:59:06;;;;;;;7.07;6.57;;;;;;;;;;4977403;28;20041;-64
2022/09/27 08:01:33;;;;;;;6.35;5.95;;;;;;;;;;4975764;28;20037;-65
2022/09/27 08:03:58;;;;;;;6.65;6.22;;;;;;;;;;4982216;28;20550;-65
2022/09/27 08:06:24;;;;;;;6.63;6.20;;;;;;;;;;4980818;28;20046;-64
2022/09/27 08:08:49;;;;;;;6.57;6.18;;;;;;;;;;4977129;28;20527;-65
2022/09/27 08:11:16;;;;;;;6.82;6.32;;;;;;;;;;4978319;28;20120;-64
2022/09/27 08:13:42;;;;;;;7.30;6.80;;;;;;;;;;4978601;28;20126;-64
2022/09/27 08:16:07;;;;;;;7.90;7.40;;;;;;;;;;4976537;28;20061;-64
2022/09/27 08:18:32;;;;;;;7.75;7.15;;;;;;;;;;4976550;28;20535;-65
2022/09/27 08:20:59;;;;;;;7.45;6.95;;;;;;;;;;4975736;28;20465;-65
2022/09/27 08:23:25;;;;;;;7.32;6.82;;;;;;;;;;4977364;28;20496;-66
2022/09/27 08:25:52;;;;;;;5.82;5.43;;;;;;;;;;4976072;28;20034;-64
2022/09/27 08:28:17;;;;;;;6.65;6.20;;;;;;;;;;4976464;28;20030;-65
2022/09/27 08:30:43;;;;;;;7.10;6.60;;;;;;;;;;4976747;28;20026;-66
2022/09/27 08:33:08;;;;;;;6.15;5.75;;;;;;;;;;4975719;28;20042;-65
2022/09/27 08:35:33;;;;;;;5.90;5.50;;;;;;;;;;4979052;28;20047;-65
2022/09/27 08:38:00;;;;;;;7.10;6.60;;;;;;;;;;4980144;28;20034;-65
2022/09/27 08:40:46;;;;;;;6.82;6.32;;;;;;;;;;4980000;28;20026;-64
2022/09/27 08:43:27;;;;;;;6.20;5.80;;;;;;;;;;4973567;28;20234;-66
2022/09/27 08:46:06;;;;;;;6.13;5.72;;;;;;;;;;4980260;28;20026;-65
2022/09/27 08:48:35;;;;;;;5.75;5.35;;;;;;;;;;4977491;28;20365;-66
2022/09/27 08:51:02;;;;;;;5.25;4.85;;;;;;;;;;4978601;28;20037;-66
2022/09/27 08:53:36;;;;;;;5.93;5.53;;;;;;;;;;4976056;28;20389;-64
2022/09/27 08:56:03;;;;;;;5.68;5.28;;;;;;;;;;4980350;28;20026;-65
2022/09/27 08:58:32;;;;;;;5.32;4.93;;;;;;;;;;4977887;28;20019;-64
2022/09/27 09:01:13;;;;;;;5.70;5.30;;;;;;;;;;4974635;28;20039;-64
2022/09/27 09:03:54;;;;;;;6.00;5.60;;;;;;;;;;4978522;28;20483;-65
2022/09/27 09:06:24;;;;;;;5.95;5.55;;;;;;;;;;4974825;28;20412;-65
2022/09/27 09:09:08;;;;;;;5.60;5.20;;;;;;;;;;4974134;28;20476;-65
2022/09/27 09:14:49;;;;;;;6.10;5.70;;;;;;;;;;4975898;28;20034;-66
2022/09/27 09:17:47;;;;;;;7.13;6.63;;;;;;;;;;4972851;28;20652;-66
2022/09/27 09:20:38;;;;;;;8.05;7.55;;;;;;;;;;4979362;28;20905;-67
2022/09/27 09:23:06;;;;;;;;;;;;;;;;;;4976796;28;20050;-66
2022/09/27 09:26:07;;;;;;;5.70;5.30;;;;;;;;;;4976904;28;19918;-66
2022/09/27 09:28:55;;;;;;;5.75;5.35;;;;;;;;;;4949467;28;20027;-66
2022/09/27 09:31:50;;;;;;;6.47;6.07;;;;;;;;;;4971964;28;20181;-66
2022/09/27 09:34:31;;;;;;;7.10;6.60;;;;;;;;;;4974779;28;20038;-69
2022/09/27 09:37:02;;;;;;;6.10;5.70;;;;;;;;;;4971452;28;20492;-66
2022/09/27 09:39:52;;;;;;;5.65;5.25;;;;;;;;;;4978188;28;20037;-66
2022/09/27 09:42:38;;;;;;;5.97;5.57;;;;;;;;;;4977485;28;20030;-66
2022/09/27 09:45:06;;;;;;;6.30;5.90;;;;;;;;;;4975014;28;20034;-66
2022/09/27 09:47:44;;;;;;;6.18;5.78;;;;;;;;;;4977924;28;20026;-66
2022/09/27 09:50:27;;;;;;;6.20;5.80;;;;;;;;;;4977115;28;20038;-67
2022/09/27 09:53:03;;;;;;;6.72;6.22;;;;;;;;;;4979416;28;20043;-68
2022/09/27 09:55:35;;;;;;;6.38;5.95;;;;;;;;;;4978000;28;20023;-68
2022/09/27 09:58:18;;;;;;;7.28;6.78;;;;;;;;;;4981319;28;20042;-67
2022/09/27 10:00:46;;;;;;;6.57;6.15;;;;;;;;;;4980742;28;20045;-68
2022/09/27 10:03:11;;;;;;;7.30;6.80;;;;;;;;;;4981460;28;20033;-67
2022/09/27 10:05:36;;;;;;;7.57;7.07;;;;;;;;;;4978403;28;20557;-67
2022/09/27 10:08:06;;;;;;;6.70;6.20;;;;;;;;;;4980925;28;20035;-68
2022/09/27 10:10:33;;;;;;;7.32;6.82;;;;;;;;;;4979525;28;20121;-70
2022/09/27 10:13:02;;;;;;;7.78;7.28;;;;;;;;;;4979891;28;20070;-67
2022/09/27 10:15:29;;;;;;;6.97;6.47;;;;;;;;;;4975168;28;20433;-67
2022/09/27 10:17:58;;;;;;;7.32;6.82;;;;;;;;;;4976564;28;20039;-68
2022/09/27 10:20:41;;;;;;;6.60;6.15;;;;;;;;;;4979619;28;20057;-68
2022/09/27 10:23:20;;;;;;;7.10;6.60;;;;;;;;;;4977155;28;20026;-68
2022/09/27 10:25:56;;;;;;;6.43;6.03;;;;;;;;;;4975220;28;20087;-67
2022/09/27 10:28:42;;;;;;;5.82;5.43;;;;;;;;;;4978575;28;20049;-68
2022/09/27 10:31:12;;;;;;;6.10;5.70;;;;;;;;;;4977676;28;20030;-66
2022/09/27 10:33:52;;;;;;;6.32;5.93;;;;;;;;;;4979539;28;20090;-66
2022/09/27 10:36:28;;;;;;;6.65;6.20;;;;;;;;;;4978817;28;20034;-66
2022/09/27 10:39:03;;;;;;;7.22;6.72;;;;;;;;;;4978295;28;20037;-68
2022/09/27 10:41:37;;;;;;;7.28;6.78;;;;;;;;;;4977788;28;20034;-67
2022/09/27 10:44:15;;;;;;;6.85;6.35;;;;;;;;;;4979977;28;20520;-67
2022/09/27 10:46:48;;;;;;;7.85;7.07;;;;;;;;;;4977764;28;20035;-67
2022/09/27 10:49:25;;;;;;;7.20;6.70;;;;;;;;;;4978848;28;20924;-69
2022/09/27 10:52:00;;;;;;;7.03;6.53;;;;;;;;;;4978325;28;20034;-67
2022/09/27 10:54:28;;;;;;;7.28;6.78;;;;;;;;;;4979933;28;20472;-68
2022/09/27 10:57:18;;;;;;;6.55;6.15;;;;;;;;;;4978056;28;20035;-67
2022/09/27 10:59:54;;;;;;;6.00;5.60;;;;;;;;;;4973022;28;20038;-68
2022/09/27 11:02:22;;;;;;;6.57;6.15;;;;;;;;;;4976744;28;20070;-67
2022/09/27 11:05:30;;;;;;;8.40;7.90;;;;;;;;;;4977474;28;20113;-67
2022/09/27 11:08:17;;;;;;;7.18;6.68;;;;;;;;;;4977594;28;20049;-66
2022/09/27 11:10:42;;;;;;;7.38;6.88;;;;;;;;;;4975932;28;20046;-67
2022/09/27 11:13:16;;;;;;;12.30;11.60;;;;;;;;;;4978117;28;20044;-67
2022/09/27 11:16:10;;;;;;;10.27;9.63;;;;;;;;;;4977806;28;20030;-67
2022/09/27 11:18:47;;;;;;;11.02;10.38;;;;;;;;;;4977913;28;20042;-68
2022/09/27 11:21:26;;;;;;;8.18;7.68;;;;;;;;;;4991327;28;20496;-67
2022/09/27 11:24:10;;;;;;;14.40;13.60;;;;;;;;;;4978011;28;20073;-67
2022/09/27 11:26:50;;;;;;;9.65;9.05;;;;;;;;;;4976463;28;20684;-67
2022/09/27 11:29:31;;;;;;;10.70;10.05;;;;;;;;;;4975786;28;20034;-68
2022/09/27 11:32:15;;;;;;;;;;;;;;;;;;4975043;28;20627;-68
2022/09/27 11:34:51;;;;;;;6.20;5.80;;;;;;;;;;4974692;28;19928;-68
2022/09/27 11:37:56;;;;;;;7.93;7.32;;;;;;;;;;4996634;28;20077;-68
2022/09/27 11:40:43;;;;;;;9.35;8.75;;;;;;;;;;4978576;28;20040;-67
2022/09/27 11:43:36;;;;;;;8.38;7.88;;;;;;;;;;4975782;28;20376;-68
2022/09/27 11:46:28;;;;;;;8.68;8.18;;;;;;;;;;4975799;28;20050;-68
2022/09/27 11:49:06;;;;;;;9.85;9.02;;;;;;;;;;4977496;28;20053;-67
2022/09/27 11:52:15;;;;;;;11.23;10.52;;;;;;;;;;4978010;28;20514;-68
2022/09/27 11:55:18;;;;;;;8.40;7.90;;;;;;;;;;4974289;28;20037;-67
2022/09/27 11:58:12;;;;;;;12.98;12.18;;;;;;;;;;4975870;28;20469;-64
2022/09/27 12:01:14;;;;;;;8.63;8.13;;;;;;;;;;4991764;28;20038;-64
2022/09/27 12:03:52;;;;;;;10.07;9.48;;;;;;;;;;4975653;28;20045;-65
2022/09/27 12:06:45;;;;;;;7.97;7.47;;;;;;;;;;4977400;28;20049;-64
2022/09/27 12:09:18;;;;;;;8.07;7.57;;;;;;;;;;4978380;28;20030;-64
2022/09/27 12:11:50;;;;;;;6.93;6.43;;;;;;;;;;4977207;28;20034;-65
2022/09/27 12:14:32;;;;;;;7.45;6.95;;;;;;;;;;4975825;28;20126;-64
2022/09/27 12:16:58;;;;;;;6.90;6.40;;;;;;;;;;4977192;28;20027;-64
2022/09/27 12:19:29;;;;;;;8.10;7.60;;;;;;;;;;4976994;28;20084;-65
2022/09/27 12:22:00;;;;;;;9.30;8.70;;;;;;;;;;4991738;28;20040;-65
2022/09/27 12:24:25;;;;;;;;;;;;;;;;;;4978621;28;20030;-65
2022/09/27 12:26:58;;;;;;;8.45;7.93;;;;;;;;;;4979714;28;19928;-64
2022/09/27 12:29:37;;;;;;;8.05;7.55;;;;;;;;;;4980143;28;20065;-64
2022/09/27 12:32:21;;;;;;;7.40;6.90;;;;;;;;;;4981450;28;20516;-64
2022/09/27 12:34:55;;;;;;;7.43;6.93;;;;;;;;;;4976664;28;20057;-65
2022/09/27 12:37:24;;;;;;;6.75;6.25;;;;;;;;;;4977866;28;20117;-64
2022/09/27 12:40:22;;;;;;;7.10;6.60;;;;;;;;;;4978614;28;20046;-65
2022/09/27 12:42:58;;;;;;;7.18;6.68;;;;;;;;;;4977431;28;20559;-64
2022/09/27 12:45:58;;;;;;;6.82;6.32;;;;;;;;;;4979924;28;20097;-64
2022/09/27 12:48:55;;;;;;;7.07;6.57;;;;;;;;;;4979799;28;20566;-64
2022/09/27 12:51:22;;;;;;;6.63;6.15;;;;;;;;;;4975004;28;20703;-63
2022/09/27 12:54:11;;;;;;;7.15;6.55;;;;;;;;;;4973065;28;20053;-64
2022/09/27 12:56:56;;;;;;;6.32;5.93;;;;;;;;;;4981042;28;20026;-66
2022/09/27 12:59:39;;;;;;;6.65;6.20;;;;;;;;;;4978664;28;20184;-65
2022/09/27 13:02:20;;;;;;;7.40;6.90;;;;;;;;;;4981735;28;20034;-65
2022/09/27 13:05:19;;;;;;;7.07;6.47;;;;;;;;;;4980143;28;20431;-64
2022/09/27 13:08:12;;;;;;;7.30;6.80;;;;;;;;;;4975705;28;20034;-64
2022/09/27 13:10:40;;;;;;;6.97;6.47;;;;;;;;;;4980391;28;20069;-64
2022/09/27 13:13:14;;;;;;;6.32;5.93;;;;;;;;;;4978937;28;20034;-65
2022/09/27 13:15:44;;;;;;;6.20;5.80;;;;;;;;;;4980129;28;20030;-64
2022/09/27 13:18:34;;;;;;;6.10;5.70;;;;;;;;;;4974538;28;20388;-64
2022/09/27 13:21:05;;;;;;;5.80;5.40;;;;;;;;;;4975234;28;20141;-64
2022/09/27 13:23:30;;;;;;;5.80;5.40;;;;;;;;;;4978448;28;20205;-64
2022/09/27 13:25:59;;;;;;;6.45;5.95;;;;;;;;;;4977251;28;20552;-64
2022/09/27 13:28:28;;;;;;;5.90;5.50;;;;;;;;;;4978321;28;20484;-64
2022/09/27 13:30:54;;;;;;;6.00;5.60;;;;;;;;;;4980371;28;20464;-63
2022/09/27 13:33:44;;;;;;;6.15;5.75;;;;;;;;;;4978169;28;20807;-64
2022/09/27 13:36:26;;;;;;;6.00;5.60;;;;;;;;;;4974631;28;20066;-63
2022/09/27 13:39:09;;;;;;;7.60;7.05;;;;;;;;;;4979572;28;20057;-63
2022/09/27 13:41:43;;;;;;;6.25;5.85;;;;;;;;;;4985120;28;20117;-63
2022/09/27 13:44:39;;;;;;;6.15;5.75;;;;;;;;;;4976910;28;20116;-63
2022/09/27 13:47:35;;;;;;;5.75;5.35;;;;;;;;;;4977184;28;20026;-64
2022/09/27 13:50:15;;;;;;;6.82;6.32;;;;;;;;;;4978452;28;20460;-64
2022/09/27 13:52:45;;;;;;;7.03;6.53;;;;;;;;;;4976703;28;20027;-63
2022/09/27 13:55:39;;;;;;;6.45;6.05;;;;;;;;;;4977441;28;20113;-63
2022/09/27 13:58:29;;;;;;;5.90;5.50;;;;;;;;;;4976627;28;20362;-63
2022/09/27 14:00:57;;;;;;;6.15;5.75;;;;;;;;;;4976320;28;20034;-63
2022/09/27 14:03:34;;;;;;;7.03;6.53;;;;;;;;;;4972693;28;20657;-62
2022/09/27 14:06:04;;;;;;;6.50;6.07;;;;;;;;;;4975565;28;20034;-65
2022/09/27 14:08:41;;;;;;;5.70;5.30;;;;;;;;;;4977324;28;20086;-65
2022/09/27 14:11:13;;;;;;;6.00;5.60;;;;;;;;;;4974703;28;20038;-64
2022/09/27 14:13:41;;;;;;;5.80;5.40;;;;;;;;;;4974994;28;20030;-64
2022/09/27 14:16:09;;;;;;;6.00;5.60;;;;;;;;;;4976835;28;20369;-64
2022/09/27 14:18:43;;;;;;;6.50;6.07;;;;;;;;;;4981136;28;20058;-64
2022/09/27 14:21:37;;;;;;;6.20;5.80;;;;;;;;;;4979761;28;20035;-64
2022/09/27 14:24:30;;;;;;;5.90;5.50;;;;;;;;;;4976100;28;20038;-63
2022/09/27 14:27:12;;;;;;;6.38;5.97;;;;;;;;;;4976147;28;20038;-64
2022/09/27 14:29:45;;;;;;;6.00;5.60;;;;;;;;;;4979035;28;20532;-63
2022/09/27 14:32:13;;;;;;;6.32;5.93;;;;;;;;;;4976611;28;20035;-62
2022/09/27 14:34:38;;;;;;;6.68;6.20;;;;;;;;;;4976113;28;20037;-61
2022/09/27 14:37:23;;;;;;;5.75;5.35;;;;;;;;;;4971365;28;20038;-61
2022/09/27 14:40:04;;;;;;;6.10;5.70;;;;;;;;;;4980296;28;20469;-63
2022/09/27 14:42:35;;;;;;;6.07;5.68;;;;;;;;;;4983283;28;20046;-61
2022/09/27 14:45:05;;;;;;;6.60;6.15;;;;;;;;;;4978580;28;20472;-62
2022/09/27 14:47:32;;;;;;;6.28;5.88;;;;;;;;;;4978390;28;20101;-62
2022/09/27 14:50:09;;;;;;;8.18;7.65;;;;;;;;;;4978945;28;20061;-61
2022/09/27 14:52:38;;;;;;;6.30;5.85;;;;;;;;;;4979149;28;20495;-62
2022/09/27 14:55:18;;;;;;;6.78;6.28;;;;;;;;;;4978297;28;20045;-62
2022/09/27 14:57:52;;;;;;;5.82;5.43;;;;;;;;;;4980460;28;20039;-63
2022/09/27 15:00:30;;;;;;;5.88;5.47;;;;;;;;;;4982519;28;20042;-64
2022/09/27 15:02:58;;;;;;;5.97;5.57;;;;;;;;;;4979354;28;20026;-63
2022/09/27 15:05:29;;;;;;;7.00;6.40;;;;;;;;;;4979451;28;20084;-63
2022/09/27 15:07:57;;;;;;;6.95;6.45;;;;;;;;;;4978807;28;20034;-62
2022/09/27 15:10:26;;;;;;;6.13;5.72;;;;;;;;;;4982407;28;20066;-62
2022/09/27 15:12:56;;;;;;;5.93;5.53;;;;;;;;;;4979717;28;20469;-63
2022/09/27 15:15:24;;;;;;;18.07;16.23;;;;;;;;;;4977293;28;20107;-63
2022/09/27 15:17:50;;;;;;;16.17;14.93;;;;;;;;;;4977507;28;20386;-62
2022/09/27 15:20:30;;;;;;;9.43;8.73;;;;;;;;;;4977798;28;20043;-63